Altus, Oklahoma
Current Conditions -  °F | °C
As of 1:58 PM on Sunday 23 Nov 2014 (Local Time) from KLTS Reporting Station
Overcast Overcast  
Wind Chill: 15°   Ceiling: 4300
Heat Index: 15°   Visibility: 10mi
Dew Point:   Wind: 28mph
Humidity: 57%   Direction: 330°NNW
Pressure: 29.46"   Gusts: 36mph
Location:  34.64°N, 99.33°W
Report Text: KLTS 231958Z AUTO 33024G31KT 10SM OVC043 15/07 A2946 RMK AO2 PK WND 32035/51 SLP971 T01520067 $
Loading
Personal Weather Stations






























Interactive Weather Map New forecast layout! Learn more

10-Day Weather Forecast

Advertisements
Track Severe Weather on mobile